sensor_id;sensor_type;location;lat;lon;timestamp;temperature;humidity
7666;DHT22;3875;46.562;4.898;2023-05-07T00:00:22;17.40;83.80
7666;DHT22;3875;46.562;4.898;2023-05-07T00:02:48;17.40;83.90
7666;DHT22;3875;46.562;4.898;2023-05-07T00:05:14;17.40;83.70
7666;DHT22;3875;46.562;4.898;2023-05-07T00:07:39;17.50;83.50
7666;DHT22;3875;46.562;4.898;2023-05-07T00:10:06;17.60;83.10
7666;DHT22;3875;46.562;4.898;2023-05-07T00:12:32;17.60;83.10
7666;DHT22;3875;46.562;4.898;2023-05-07T00:15:04;17.70;83.10
7666;DHT22;3875;46.562;4.898;2023-05-07T00:17:30;17.80;83.00
7666;DHT22;3875;46.562;4.898;2023-05-07T00:19:56;17.80;82.90
7666;DHT22;3875;46.562;4.898;2023-05-07T00:22:22;17.80;82.90
7666;DHT22;3875;46.562;4.898;2023-05-07T00:24:47;17.90;82.90
7666;DHT22;3875;46.562;4.898;2023-05-07T00:27:13;18.00;82.60
7666;DHT22;3875;46.562;4.898;2023-05-07T00:29:39;18.10;82.60
7666;DHT22;3875;46.562;4.898;2023-05-07T00:32:04;18.20;82.30
7666;DHT22;3875;46.562;4.898;2023-05-07T00:34:30;18.20;82.50
7666;DHT22;3875;46.562;4.898;2023-05-07T00:36:56;17.90;83.30
7666;DHT22;3875;46.562;4.898;2023-05-07T00:39:21;17.90;84.10
7666;DHT22;3875;46.562;4.898;2023-05-07T00:41:47;17.80;85.40
7666;DHT22;3875;46.562;4.898;2023-05-07T00:44:13;17.70;86.30
7666;DHT22;3875;46.562;4.898;2023-05-07T00:46:40;17.70;86.90
7666;DHT22;3875;46.562;4.898;2023-05-07T00:49:06;17.50;88.00
7666;DHT22;3875;46.562;4.898;2023-05-07T00:51:32;17.50;88.40
7666;DHT22;3875;46.562;4.898;2023-05-07T00:54:02;17.40;88.90
7666;DHT22;3875;46.562;4.898;2023-05-07T00:56:28;17.30;89.10
7666;DHT22;3875;46.562;4.898;2023-05-07T00:58:53;17.30;88.90
7666;DHT22;3875;46.562;4.898;2023-05-07T01:01:19;17.20;89.30
7666;DHT22;3875;46.562;4.898;2023-05-07T01:03:45;17.10;89.60
7666;DHT22;3875;46.562;4.898;2023-05-07T01:06:12;17.10;90.20
7666;DHT22;3875;46.562;4.898;2023-05-07T01:08:39;17.00;90.40
7666;DHT22;3875;46.562;4.898;2023-05-07T01:11:07;17.00;90.60
7666;DHT22;3875;46.562;4.898;2023-05-07T01:13:34;16.90;91.00
7666;DHT22;3875;46.562;4.898;2023-05-07T01:16:00;16.90;90.70
7666;DHT22;3875;46.562;4.898;2023-05-07T01:18:26;16.90;90.60
7666;DHT22;3875;46.562;4.898;2023-05-07T01:20:52;16.90;90.70
7666;DHT22;3875;46.562;4.898;2023-05-07T01:23:20;16.90;90.70
7666;DHT22;3875;46.562;4.898;2023-05-07T01:25:55;16.80;90.80
7666;DHT22;3875;46.562;4.898;2023-05-07T01:28:21;16.70;91.30
7666;DHT22;3875;46.562;4.898;2023-05-07T01:30:53;16.70;91.80
7666;DHT22;3875;46.562;4.898;2023-05-07T01:33:21;16.60;91.90
7666;DHT22;3875;46.562;4.898;2023-05-07T01:35:50;16.70;91.60
7666;DHT22;3875;46.562;4.898;2023-05-07T01:38:17;16.70;91.60
7666;DHT22;3875;46.562;4.898;2023-05-07T01:40:43;16.70;91.70
7666;DHT22;3875;46.562;4.898;2023-05-07T01:43:09;16.70;91.80
7666;DHT22;3875;46.562;4.898;2023-05-07T01:45:36;16.70;92.20
7666;DHT22;3875;46.562;4.898;2023-05-07T01:48:02;16.60;92.50
7666;DHT22;3875;46.562;4.898;2023-05-07T01:50:29;16.50;93.00
7666;DHT22;3875;46.562;4.898;2023-05-07T01:52:56;16.50;93.10
7666;DHT22;3875;46.562;4.898;2023-05-07T01:55:22;16.50;93.00
7666;DHT22;3875;46.562;4.898;2023-05-07T01:57:48;16.50;93.40
7666;DHT22;3875;46.562;4.898;2023-05-07T02:00:13;16.50;93.20
7666;DHT22;3875;46.562;4.898;2023-05-07T02:02:39;16.40;93.10
7666;DHT22;3875;46.562;4.898;2023-05-07T02:05:05;16.40;93.10
7666;DHT22;3875;46.562;4.898;2023-05-07T02:07:31;16.30;93.30
7666;DHT22;3875;46.562;4.898;2023-05-07T02:09:57;16.30;93.40
7666;DHT22;3875;46.562;4.898;2023-05-07T02:12:22;16.30;93.00
7666;DHT22;3875;46.562;4.898;2023-05-07T02:14:49;16.30;92.80
7666;DHT22;3875;46.562;4.898;2023-05-07T02:17:14;16.20;93.20
7666;DHT22;3875;46.562;4.898;2023-05-07T02:19:40;16.20;93.10
7666;DHT22;3875;46.562;4.898;2023-05-07T02:22:06;16.20;93.00
7666;DHT22;3875;46.562;4.898;2023-05-07T02:24:32;16.20;93.40
7666;DHT22;3875;46.562;4.898;2023-05-07T02:26:58;16.20;93.30
7666;DHT22;3875;46.562;4.898;2023-05-07T02:29:23;16.20;93.30
7666;DHT22;3875;46.562;4.898;2023-05-07T02:31:49;16.30;93.10
7666;DHT22;3875;46.562;4.898;2023-05-07T02:34:18;16.40;92.60
7666;DHT22;3875;46.562;4.898;2023-05-07T02:36:44;16.60;92.20
7666;DHT22;3875;46.562;4.898;2023-05-07T02:39:11;16.70;91.90
7666;DHT22;3875;46.562;4.898;2023-05-07T02:41:37;16.90;91.50
7666;DHT22;3875;46.562;4.898;2023-05-07T02:44:03;16.90;91.50
7666;DHT22;3875;46.562;4.898;2023-05-07T02:46:29;17.00;91.20
7666;DHT22;3875;46.562;4.898;2023-05-07T02:48:54;17.10;91.20
7666;DHT22;3875;46.562;4.898;2023-05-07T02:51:21;17.10;90.60
7666;DHT22;3875;46.562;4.898;2023-05-07T02:53:47;17.20;90.60
7666;DHT22;3875;46.562;4.898;2023-05-07T02:56:13;17.20;90.40
7666;DHT22;3875;46.562;4.898;2023-05-07T02:58:39;17.20;90.40
7666;DHT22;3875;46.562;4.898;2023-05-07T03:01:05;17.20;90.30
7666;DHT22;3875;46.562;4.898;2023-05-07T03:03:31;17.20;90.20
7666;DHT22;3875;46.562;4.898;2023-05-07T03:05:57;17.20;90.40
7666;DHT22;3875;46.562;4.898;2023-05-07T03:08:23;17.10;90.40
7666;DHT22;3875;46.562;4.898;2023-05-07T03:10:49;17.10;90.50
7666;DHT22;3875;46.562;4.898;2023-05-07T03:13:14;17.10;90.50
7666;DHT22;3875;46.562;4.898;2023-05-07T03:15:40;17.10;90.70
7666;DHT22;3875;46.562;4.898;2023-05-07T03:18:06;17.10;90.70
7666;DHT22;3875;46.562;4.898;2023-05-07T03:20:31;17.10;90.90
7666;DHT22;3875;46.562;4.898;2023-05-07T03:22:57;17.10;90.90
7666;DHT22;3875;46.562;4.898;2023-05-07T03:25:23;17.10;91.10
7666;DHT22;3875;46.562;4.898;2023-05-07T03:27:49;17.10;91.10
7666;DHT22;3875;46.562;4.898;2023-05-07T03:30:15;17.10;91.10
7666;DHT22;3875;46.562;4.898;2023-05-07T03:32:40;17.10;90.90
7666;DHT22;3875;46.562;4.898;2023-05-07T03:35:06;17.10;90.90
7666;DHT22;3875;46.562;4.898;2023-05-07T03:37:32;17.10;91.00
7666;DHT22;3875;46.562;4.898;2023-05-07T03:39:58;17.00;91.10
7666;DHT22;3875;46.562;4.898;2023-05-07T03:42:24;17.00;91.10
7666;DHT22;3875;46.562;4.898;2023-05-07T03:44:50;17.00;91.10
7666;DHT22;3875;46.562;4.898;2023-05-07T03:47:15;17.00;91.10
7666;DHT22;3875;46.562;4.898;2023-05-07T03:49:41;17.00;91.30
7666;DHT22;3875;46.562;4.898;2023-05-07T03:52:07;17.00;91.30
7666;DHT22;3875;46.562;4.898;2023-05-07T03:54:32;17.00;91.30
7666;DHT22;3875;46.562;4.898;2023-05-07T03:56:58;17.00;91.20
7666;DHT22;3875;46.562;4.898;2023-05-07T03:59:24;17.00;91.30
7666;DHT22;3875;46.562;4.898;2023-05-07T04:01:49;17.00;91.50
7666;DHT22;3875;46.562;4.898;2023-05-07T04:04:15;16.90;91.50
7666;DHT22;3875;46.562;4.898;2023-05-07T04:06:41;16.90;91.80
7666;DHT22;3875;46.562;4.898;2023-05-07T04:09:07;16.90;91.80
7666;DHT22;3875;46.562;4.898;2023-05-07T04:11:33;16.90;91.70
7666;DHT22;3875;46.562;4.898;2023-05-07T04:13:58;16.90;91.80
7666;DHT22;3875;46.562;4.898;2023-05-07T04:16:24;16.90;91.80
7666;DHT22;3875;46.562;4.898;2023-05-07T04:18:50;16.90;91.60
7666;DHT22;3875;46.562;4.898;2023-05-07T04:21:20;16.90;91.70
7666;DHT22;3875;46.562;4.898;2023-05-07T04:23:47;16.90;91.60
7666;DHT22;3875;46.562;4.898;2023-05-07T04:26:13;16.90;91.70
7666;DHT22;3875;46.562;4.898;2023-05-07T04:28:39;16.90;91.70
7666;DHT22;3875;46.562;4.898;2023-05-07T04:31:06;16.90;91.70
7666;DHT22;3875;46.562;4.898;2023-05-07T04:33:32;16.90;91.60
7666;DHT22;3875;46.562;4.898;2023-05-07T04:36:00;16.90;91.50
7666;DHT22;3875;46.562;4.898;2023-05-07T04:38:29;16.90;91.50
7666;DHT22;3875;46.562;4.898;2023-05-07T04:40:56;16.80;91.60
7666;DHT22;3875;46.562;4.898;2023-05-07T04:43:22;16.80;91.90
7666;DHT22;3875;46.562;4.898;2023-05-07T04:45:51;16.70;92.30
7666;DHT22;3875;46.562;4.898;2023-05-07T04:48:16;16.50;92.70
7666;DHT22;3875;46.562;4.898;2023-05-07T04:50:46;16.50;92.90
7666;DHT22;3875;46.562;4.898;2023-05-07T04:53:12;16.50;92.90
7666;DHT22;3875;46.562;4.898;2023-05-07T04:55:38;16.60;92.80
7666;DHT22;3875;46.562;4.898;2023-05-07T04:58:03;16.70;92.60
7666;DHT22;3875;46.562;4.898;2023-05-07T05:00:30;16.70;92.50
7666;DHT22;3875;46.562;4.898;2023-05-07T05:02:56;16.80;92.40
7666;DHT22;3875;46.562;4.898;2023-05-07T05:05:21;16.80;92.20
7666;DHT22;3875;46.562;4.898;2023-05-07T05:07:47;16.90;92.10
7666;DHT22;3875;46.562;4.898;2023-05-07T05:10:12;16.90;92.10
7666;DHT22;3875;46.562;4.898;2023-05-07T05:12:38;16.90;91.90
7666;DHT22;3875;46.562;4.898;2023-05-07T05:15:05;17.00;91.90
7666;DHT22;3875;46.562;4.898;2023-05-07T05:17:30;17.00;91.80
7666;DHT22;3875;46.562;4.898;2023-05-07T05:19:56;17.00;91.80
7666;DHT22;3875;46.562;4.898;2023-05-07T05:22:22;17.00;91.80
7666;DHT22;3875;46.562;4.898;2023-05-07T05:24:47;17.00;91.80
7666;DHT22;3875;46.562;4.898;2023-05-07T05:27:13;17.00;91.90
7666;DHT22;3875;46.562;4.898;2023-05-07T05:29:39;16.90;91.90
7666;DHT22;3875;46.562;4.898;2023-05-07T05:32:04;16.90;92.00
7666;DHT22;3875;46.562;4.898;2023-05-07T05:34:30;16.90;92.10
7666;DHT22;3875;46.562;4.898;2023-05-07T05:36:56;16.80;92.30
7666;DHT22;3875;46.562;4.898;2023-05-07T05:39:22;16.80;92.40
7666;DHT22;3875;46.562;4.898;2023-05-07T05:41:48;16.80;92.60
7666;DHT22;3875;46.562;4.898;2023-05-07T05:44:14;16.80;92.50
7666;DHT22;3875;46.562;4.898;2023-05-07T05:46:39;16.90;92.40
7666;DHT22;3875;46.562;4.898;2023-05-07T05:49:05;17.00;92.30
7666;DHT22;3875;46.562;4.898;2023-05-07T05:51:31;17.00;92.10
7666;DHT22;3875;46.562;4.898;2023-05-07T05:53:57;17.10;92.10
7666;DHT22;3875;46.562;4.898;2023-05-07T05:56:22;17.20;92.00
7666;DHT22;3875;46.562;4.898;2023-05-07T05:58:48;17.30;91.80
7666;DHT22;3875;46.562;4.898;2023-05-07T06:01:13;17.40;91.50
7666;DHT22;3875;46.562;4.898;2023-05-07T06:03:39;17.50;91.50
7666;DHT22;3875;46.562;4.898;2023-05-07T06:06:05;17.50;91.20
7666;DHT22;3875;46.562;4.898;2023-05-07T06:08:30;17.60;91.20
7666;DHT22;3875;46.562;4.898;2023-05-07T06:10:56;17.60;91.00
7666;DHT22;3875;46.562;4.898;2023-05-07T06:13:22;17.60;91.00
7666;DHT22;3875;46.562;4.898;2023-05-07T06:15:49;17.60;90.90
7666;DHT22;3875;46.562;4.898;2023-05-07T06:18:15;17.50;90.80
7666;DHT22;3875;46.562;4.898;2023-05-07T06:20:40;17.50;91.00
7666;DHT22;3875;46.562;4.898;2023-05-07T06:23:06;17.50;91.10
7666;DHT22;3875;46.562;4.898;2023-05-07T06:25:32;17.50;91.10
7666;DHT22;3875;46.562;4.898;2023-05-07T06:27:57;17.50;91.20
7666;DHT22;3875;46.562;4.898;2023-05-07T06:30:23;17.50;91.20
7666;DHT22;3875;46.562;4.898;2023-05-07T06:32:49;17.50;91.10
7666;DHT22;3875;46.562;4.898;2023-05-07T06:35:14;17.60;91.20
7666;DHT22;3875;46.562;4.898;2023-05-07T06:37:41;17.70;90.90
7666;DHT22;3875;46.562;4.898;2023-05-07T06:40:08;17.80;90.70
7666;DHT22;3875;46.562;4.898;2023-05-07T06:42:35;17.90;90.50
7666;DHT22;3875;46.562;4.898;2023-05-07T06:45:01;17.90;90.00
7666;DHT22;3875;46.562;4.898;2023-05-07T06:47:26;18.00;90.00
7666;DHT22;3875;46.562;4.898;2023-05-07T06:49:52;18.10;89.80
7666;DHT22;3875;46.562;4.898;2023-05-07T06:52:18;18.10;89.60
7666;DHT22;3875;46.562;4.898;2023-05-07T06:54:43;18.10;89.30
7666;DHT22;3875;46.562;4.898;2023-05-07T06:57:09;18.10;89.00
7666;DHT22;3875;46.562;4.898;2023-05-07T06:59:35;18.20;89.00
7666;DHT22;3875;46.562;4.898;2023-05-07T07:02:00;18.20;88.90
7666;DHT22;3875;46.562;4.898;2023-05-07T07:04:26;18.20;89.00
7666;DHT22;3875;46.562;4.898;2023-05-07T07:06:53;18.30;88.80
7666;DHT22;3875;46.562;4.898;2023-05-07T07:09:19;18.40;88.60
7666;DHT22;3875;46.562;4.898;2023-05-07T07:11:44;18.40;88.50
7666;DHT22;3875;46.562;4.898;2023-05-07T07:14:10;18.40;88.60
7666;DHT22;3875;46.562;4.898;2023-05-07T07:16:36;18.50;88.60
7666;DHT22;3875;46.562;4.898;2023-05-07T07:19:01;18.60;88.20
7666;DHT22;3875;46.562;4.898;2023-05-07T07:21:27;18.70;87.70
7666;DHT22;3875;46.562;4.898;2023-05-07T07:23:53;18.80;87.20
7666;DHT22;3875;46.562;4.898;2023-05-07T07:26:18;19.00;87.10
7666;DHT22;3875;46.562;4.898;2023-05-07T07:28:45;19.00;86.90
7666;DHT22;3875;46.562;4.898;2023-05-07T07:31:11;19.00;86.30
7666;DHT22;3875;46.562;4.898;2023-05-07T07:33:37;19.00;85.90
7666;DHT22;3875;46.562;4.898;2023-05-07T07:36:02;18.90;86.30
7666;DHT22;3875;46.562;4.898;2023-05-07T07:38:28;18.80;86.40
7666;DHT22;3875;46.562;4.898;2023-05-07T07:40:54;18.70;86.50
7666;DHT22;3875;46.562;4.898;2023-05-07T07:43:20;18.60;86.60
7666;DHT22;3875;46.562;4.898;2023-05-07T07:45:46;18.50;87.10
7666;DHT22;3875;46.562;4.898;2023-05-07T07:48:11;18.50;87.10
7666;DHT22;3875;46.562;4.898;2023-05-07T07:50:38;18.50;87.40
7666;DHT22;3875;46.562;4.898;2023-05-07T07:53:03;18.60;87.00
7666;DHT22;3875;46.562;4.898;2023-05-07T07:55:29;18.50;86.90
7666;DHT22;3875;46.562;4.898;2023-05-07T07:57:56;18.50;87.40
7666;DHT22;3875;46.562;4.898;2023-05-07T08:00:22;18.60;87.70
7666;DHT22;3875;46.562;4.898;2023-05-07T08:02:47;18.60;87.50
7666;DHT22;3875;46.562;4.898;2023-05-07T08:05:13;18.80;87.80
7666;DHT22;3875;46.562;4.898;2023-05-07T08:07:39;18.90;87.30
7666;DHT22;3875;46.562;4.898;2023-05-07T08:10:05;19.00;86.70
7666;DHT22;3875;46.562;4.898;2023-05-07T08:12:30;19.00;86.70
7666;DHT22;3875;46.562;4.898;2023-05-07T08:14:56;18.90;87.10
7666;DHT22;3875;46.562;4.898;2023-05-07T08:17:22;18.90;87.40
7666;DHT22;3875;46.562;4.898;2023-05-07T08:19:48;18.90;87.60
7666;DHT22;3875;46.562;4.898;2023-05-07T08:22:13;19.00;87.60
7666;DHT22;3875;46.562;4.898;2023-05-07T08:24:40;19.20;86.90
7666;DHT22;3875;46.562;4.898;2023-05-07T08:27:05;19.20;86.20
7666;DHT22;3875;46.562;4.898;2023-05-07T08:29:31;19.30;86.20
7666;DHT22;3875;46.562;4.898;2023-05-07T08:31:57;19.30;86.90
7666;DHT22;3875;46.562;4.898;2023-05-07T08:34:22;19.50;86.50
7666;DHT22;3875;46.562;4.898;2023-05-07T08:36:48;19.60;86.60
7666;DHT22;3875;46.562;4.898;2023-05-07T08:39:15;19.60;85.00
7666;DHT22;3875;46.562;4.898;2023-05-07T08:41:44;19.30;84.90
7666;DHT22;3875;46.562;4.898;2023-05-07T08:44:14;19.00;85.50
7666;DHT22;3875;46.562;4.898;2023-05-07T08:46:42;19.00;86.60
7666;DHT22;3875;46.562;4.898;2023-05-07T08:49:13;18.90;86.30
7666;DHT22;3875;46.562;4.898;2023-05-07T08:51:39;18.90;86.00
7666;DHT22;3875;46.562;4.898;2023-05-07T08:54:05;18.90;86.60
7666;DHT22;3875;46.562;4.898;2023-05-07T08:56:31;18.90;86.10
7666;DHT22;3875;46.562;4.898;2023-05-07T08:58:57;18.90;86.70
7666;DHT22;3875;46.562;4.898;2023-05-07T09:01:24;18.90;86.90
7666;DHT22;3875;46.562;4.898;2023-05-07T09:03:50;19.00;86.90
7666;DHT22;3875;46.562;4.898;2023-05-07T09:06:17;19.10;86.30
7666;DHT22;3875;46.562;4.898;2023-05-07T09:08:52;19.00;86.80
7666;DHT22;3875;46.562;4.898;2023-05-07T09:11:22;19.10;86.60
7666;DHT22;3875;46.562;4.898;2023-05-07T09:13:55;19.10;86.50
7666;DHT22;3875;46.562;4.898;2023-05-07T09:16:22;19.10;86.50
7666;DHT22;3875;46.562;4.898;2023-05-07T09:18:51;19.30;85.90
7666;DHT22;3875;46.562;4.898;2023-05-07T09:21:18;19.20;85.60
7666;DHT22;3875;46.562;4.898;2023-05-07T09:23:44;18.90;86.10
7666;DHT22;3875;46.562;4.898;2023-05-07T09:26:10;18.80;86.80
7666;DHT22;3875;46.562;4.898;2023-05-07T09:28:44;18.70;87.20
7666;DHT22;3875;46.562;4.898;2023-05-07T09:31:10;18.70;87.30
7666;DHT22;3875;46.562;4.898;2023-05-07T09:33:37;18.70;87.40
7666;DHT22;3875;46.562;4.898;2023-05-07T09:36:04;18.80;87.60
7666;DHT22;3875;46.562;4.898;2023-05-07T09:38:31;18.90;87.40
7666;DHT22;3875;46.562;4.898;2023-05-07T09:41:07;18.80;87.00
7666;DHT22;3875;46.562;4.898;2023-05-07T09:43:35;18.80;87.50
7666;DHT22;3875;46.562;4.898;2023-05-07T09:46:03;18.60;87.90
7666;DHT22;3875;46.562;4.898;2023-05-07T09:48:31;18.60;88.80
7666;DHT22;3875;46.562;4.898;2023-05-07T09:51:02;18.60;88.50
7666;DHT22;3875;46.562;4.898;2023-05-07T09:53:29;18.50;88.50
7666;DHT22;3875;46.562;4.898;2023-05-07T09:55:57;18.30;89.00
7666;DHT22;3875;46.562;4.898;2023-05-07T09:58:23;18.20;89.60
7666;DHT22;3875;46.562;4.898;2023-05-07T10:00:50;18.10;89.90
7666;DHT22;3875;46.562;4.898;2023-05-07T10:03:18;18.20;90.00
7666;DHT22;3875;46.562;4.898;2023-05-07T10:05:44;18.10;90.00
7666;DHT22;3875;46.562;4.898;2023-05-07T10:08:13;18.10;90.40
7666;DHT22;3875;46.562;4.898;2023-05-07T10:10:40;18.00;90.30
7666;DHT22;3875;46.562;4.898;2023-05-07T10:13:06;18.00;90.70
7666;DHT22;3875;46.562;4.898;2023-05-07T10:15:36;17.80;90.90
7666;DHT22;3875;46.562;4.898;2023-05-07T10:18:03;17.80;91.00
7666;DHT22;3875;46.562;4.898;2023-05-07T10:20:30;17.80;91.60
7666;DHT22;3875;46.562;4.898;2023-05-07T10:22:57;17.70;91.90
7666;DHT22;3875;46.562;4.898;2023-05-07T10:25:31;17.70;91.90
7666;DHT22;3875;46.562;4.898;2023-05-07T10:28:03;17.70;91.40
7666;DHT22;3875;46.562;4.898;2023-05-07T10:33:11;17.80;91.50
7666;DHT22;3875;46.562;4.898;2023-05-07T10:35:41;17.80;91.80
7666;DHT22;3875;46.562;4.898;2023-05-07T10:38:08;17.90;90.80
7666;DHT22;3875;46.562;4.898;2023-05-07T10:40:34;17.80;90.40
7666;DHT22;3875;46.562;4.898;2023-05-07T10:43:02;17.90;90.70
7666;DHT22;3875;46.562;4.898;2023-05-07T10:45:30;18.00;90.80
7666;DHT22;3875;46.562;4.898;2023-05-07T10:50:34;18.10;90.90
7666;DHT22;3875;46.562;4.898;2023-05-07T10:55:45;18.00;91.30
7666;DHT22;3875;46.562;4.898;2023-05-07T10:58:30;18.00;91.60
7666;DHT22;3875;46.562;4.898;2023-05-07T11:01:00;18.00;91.00
7666;DHT22;3875;46.562;4.898;2023-05-07T11:03:27;18.00;91.30
7666;DHT22;3875;46.562;4.898;2023-05-07T11:06:28;18.00;91.80
7666;DHT22;3875;46.562;4.898;2023-05-07T11:14:22;18.00;92.00
7666;DHT22;3875;46.562;4.898;2023-05-07T11:17:03;18.20;91.80
7666;DHT22;3875;46.562;4.898;2023-05-07T11:19:49;18.20;91.20
7666;DHT22;3875;46.562;4.898;2023-05-07T11:22:36;18.10;91.40
7666;DHT22;3875;46.562;4.898;2023-05-07T11:25:05;18.00;92.20
7666;DHT22;3875;46.562;4.898;2023-05-07T11:27:32;17.90;92.40
7666;DHT22;3875;46.562;4.898;2023-05-07T11:29:58;17.90;92.80
7666;DHT22;3875;46.562;4.898;2023-05-07T11:32:25;18.00;92.40
7666;DHT22;3875;46.562;4.898;2023-05-07T11:34:56;17.90;91.10
7666;DHT22;3875;46.562;4.898;2023-05-07T11:37:23;17.70;92.30
7666;DHT22;3875;46.562;4.898;2023-05-07T11:39:50;17.50;92.60
7666;DHT22;3875;46.562;4.898;2023-05-07T11:42:30;17.60;93.00
7666;DHT22;3875;46.562;4.898;2023-05-07T11:44:57;17.40;93.40
7666;DHT22;3875;46.562;4.898;2023-05-07T11:47:23;17.40;94.20
7666;DHT22;3875;46.562;4.898;2023-05-07T11:49:51;17.40;94.40
7666;DHT22;3875;46.562;4.898;2023-05-07T11:52:18;17.40;94.40
7666;DHT22;3875;46.562;4.898;2023-05-07T11:54:57;17.50;94.50
7666;DHT22;3875;46.562;4.898;2023-05-07T11:57:24;17.50;94.60
7666;DHT22;3875;46.562;4.898;2023-05-07T11:59:57;17.60;94.30
7666;DHT22;3875;46.562;4.898;2023-05-07T12:02:23;17.60;94.40
7666;DHT22;3875;46.562;4.898;2023-05-07T12:04:52;17.70;94.30
7666;DHT22;3875;46.562;4.898;2023-05-07T12:07:18;17.80;94.20
7666;DHT22;3875;46.562;4.898;2023-05-07T12:09:45;18.00;93.90
7666;DHT22;3875;46.562;4.898;2023-05-07T12:12:11;18.00;93.10
7666;DHT22;3875;46.562;4.898;2023-05-07T12:14:41;18.00;92.90
7666;DHT22;3875;46.562;4.898;2023-05-07T12:17:11;17.90;92.80
7666;DHT22;3875;46.562;4.898;2023-05-07T12:19:39;17.90;92.90
7666;DHT22;3875;46.562;4.898;2023-05-07T12:22:05;17.90;93.10
7666;DHT22;3875;46.562;4.898;2023-05-07T12:24:50;17.90;93.20
7666;DHT22;3875;46.562;4.898;2023-05-07T12:27:21;18.00;92.40
7666;DHT22;3875;46.562;4.898;2023-05-07T12:29:48;17.90;91.90
7666;DHT22;3875;46.562;4.898;2023-05-07T12:32:17;18.00;92.40
7666;DHT22;3875;46.562;4.898;2023-05-07T12:34:44;18.10;92.50
7666;DHT22;3875;46.562;4.898;2023-05-07T12:37:10;18.10;92.00
7666;DHT22;3875;46.562;4.898;2023-05-07T12:39:36;18.00;92.00
7666;DHT22;3875;46.562;4.898;2023-05-07T12:42:01;18.10;92.30
7666;DHT22;3875;46.562;4.898;2023-05-07T12:44:32;18.20;92.00
7666;DHT22;3875;46.562;4.898;2023-05-07T12:46:58;18.20;92.00
7666;DHT22;3875;46.562;4.898;2023-05-07T12:49:26;18.20;92.00
7666;DHT22;3875;46.562;4.898;2023-05-07T12:51:53;18.30;91.60
7666;DHT22;3875;46.562;4.898;2023-05-07T12:54:33;18.40;91.70
7666;DHT22;3875;46.562;4.898;2023-05-07T12:57:05;18.50;91.60
7666;DHT22;3875;46.562;4.898;2023-05-07T12:59:37;18.40;91.40
7666;DHT22;3875;46.562;4.898;2023-05-07T13:02:03;18.30;91.50
7666;DHT22;3875;46.562;4.898;2023-05-07T13:04:28;18.60;90.90
7666;DHT22;3875;46.562;4.898;2023-05-07T13:06:54;18.70;91.10
7666;DHT22;3875;46.562;4.898;2023-05-07T13:09:20;18.70;91.40
7666;DHT22;3875;46.562;4.898;2023-05-07T13:11:45;18.70;91.20
7666;DHT22;3875;46.562;4.898;2023-05-07T13:14:11;18.70;91.60
7666;DHT22;3875;46.562;4.898;2023-05-07T13:16:37;19.10;90.60
7666;DHT22;3875;46.562;4.898;2023-05-07T13:19:03;19.10;90.50
7666;DHT22;3875;46.562;4.898;2023-05-07T13:21:29;18.80;90.90
7666;DHT22;3875;46.562;4.898;2023-05-07T13:23:56;18.50;91.40
7666;DHT22;3875;46.562;4.898;2023-05-07T13:26:21;18.60;92.10
7666;DHT22;3875;46.562;4.898;2023-05-07T13:28:47;18.70;92.10
7666;DHT22;3875;46.562;4.898;2023-05-07T13:31:13;18.70;91.70
7666;DHT22;3875;46.562;4.898;2023-05-07T13:33:39;18.80;91.90
7666;DHT22;3875;46.562;4.898;2023-05-07T13:36:05;18.60;91.70
7666;DHT22;3875;46.562;4.898;2023-05-07T13:38:31;18.50;92.40
7666;DHT22;3875;46.562;4.898;2023-05-07T13:40:57;18.60;92.60
7666;DHT22;3875;46.562;4.898;2023-05-07T13:43:22;19.00;92.00
7666;DHT22;3875;46.562;4.898;2023-05-07T13:45:48;19.00;91.60
7666;DHT22;3875;46.562;4.898;2023-05-07T13:48:14;19.10;91.20
7666;DHT22;3875;46.562;4.898;2023-05-07T13:50:39;19.10;91.50
7666;DHT22;3875;46.562;4.898;2023-05-07T13:53:05;19.30;91.30
7666;DHT22;3875;46.562;4.898;2023-05-07T13:55:31;19.60;90.60
7666;DHT22;3875;46.562;4.898;2023-05-07T13:58:00;19.70;90.30
7666;DHT22;3875;46.562;4.898;2023-05-07T14:00:27;19.70;90.20
7666;DHT22;3875;46.562;4.898;2023-05-07T14:02:54;19.50;89.90
7666;DHT22;3875;46.562;4.898;2023-05-07T14:05:20;19.40;90.50
7666;DHT22;3875;46.562;4.898;2023-05-07T14:07:46;19.40;90.60
7666;DHT22;3875;46.562;4.898;2023-05-07T14:10:13;19.40;90.80
7666;DHT22;3875;46.562;4.898;2023-05-07T14:12:38;19.30;90.20
7666;DHT22;3875;46.562;4.898;2023-05-07T14:15:04;19.10;90.60
7666;DHT22;3875;46.562;4.898;2023-05-07T14:17:30;19.00;91.40
7666;DHT22;3875;46.562;4.898;2023-05-07T14:19:56;19.00;91.30
7666;DHT22;3875;46.562;4.898;2023-05-07T14:22:23;18.60;91.70
7666;DHT22;3875;46.562;4.898;2023-05-07T14:24:49;18.50;92.40
7666;DHT22;3875;46.562;4.898;2023-05-07T14:27:15;18.60;92.60
7666;DHT22;3875;46.562;4.898;2023-05-07T14:29:41;18.60;92.20
7666;DHT22;3875;46.562;4.898;2023-05-07T14:32:08;18.60;92.00
7666;DHT22;3875;46.562;4.898;2023-05-07T14:34:33;18.60;91.90
7666;DHT22;3875;46.562;4.898;2023-05-07T14:37:00;18.40;92.10
7666;DHT22;3875;46.562;4.898;2023-05-07T14:39:25;18.20;92.40
7666;DHT22;3875;46.562;4.898;2023-05-07T14:41:51;18.10;92.40
7666;DHT22;3875;46.562;4.898;2023-05-07T14:44:17;18.00;92.90
7666;DHT22;3875;46.562;4.898;2023-05-07T14:46:43;18.00;92.60
7666;DHT22;3875;46.562;4.898;2023-05-07T14:49:08;17.70;92.90
7666;DHT22;3875;46.562;4.898;2023-05-07T14:51:42;17.60;93.40
7666;DHT22;3875;46.562;4.898;2023-05-07T14:54:08;17.50;93.80
7666;DHT22;3875;46.562;4.898;2023-05-07T14:56:34;17.40;94.10
7666;DHT22;3875;46.562;4.898;2023-05-07T14:59:02;17.20;94.40
7666;DHT22;3875;46.562;4.898;2023-05-07T15:01:28;17.10;94.70
7666;DHT22;3875;46.562;4.898;2023-05-07T15:03:54;17.10;94.90
7666;DHT22;3875;46.562;4.898;2023-05-07T15:06:20;17.30;95.10
7666;DHT22;3875;46.562;4.898;2023-05-07T15:08:46;17.30;94.40
7666;DHT22;3875;46.562;4.898;2023-05-07T15:11:11;17.40;94.40
7666;DHT22;3875;46.562;4.898;2023-05-07T15:13:37;17.50;93.90
7666;DHT22;3875;46.562;4.898;2023-05-07T15:16:03;17.60;93.90
7666;DHT22;3875;46.562;4.898;2023-05-07T15:18:28;17.70;93.80
7666;DHT22;3875;46.562;4.898;2023-05-07T15:20:55;17.70;93.50
7666;DHT22;3875;46.562;4.898;2023-05-07T15:23:22;17.70;93.50
7666;DHT22;3875;46.562;4.898;2023-05-07T15:25:47;17.70;93.40
7666;DHT22;3875;46.562;4.898;2023-05-07T15:28:13;17.70;93.50
7666;DHT22;3875;46.562;4.898;2023-05-07T15:30:38;17.80;93.70
7666;DHT22;3875;46.562;4.898;2023-05-07T15:33:04;17.90;93.30
7666;DHT22;3875;46.562;4.898;2023-05-07T15:35:30;18.10;92.90
7666;DHT22;3875;46.562;4.898;2023-05-07T15:37:56;18.10;92.60
7666;DHT22;3875;46.562;4.898;2023-05-07T15:40:22;18.00;92.70
7666;DHT22;3875;46.562;4.898;2023-05-07T15:42:48;18.00;93.00
7666;DHT22;3875;46.562;4.898;2023-05-07T15:45:14;17.90;93.20
7666;DHT22;3875;46.562;4.898;2023-05-07T15:47:40;17.90;93.40
7666;DHT22;3875;46.562;4.898;2023-05-07T15:50:06;17.80;93.70
7666;DHT22;3875;46.562;4.898;2023-05-07T15:52:31;17.80;94.10
7666;DHT22;3875;46.562;4.898;2023-05-07T15:54:57;17.80;94.20
7666;DHT22;3875;46.562;4.898;2023-05-07T15:57:24;17.80;93.80
7666;DHT22;3875;46.562;4.898;2023-05-07T15:59:49;17.80;93.90
7666;DHT22;3875;46.562;4.898;2023-05-07T16:02:15;18.10;93.90
7666;DHT22;3875;46.562;4.898;2023-05-07T16:04:41;18.30;93.20
7666;DHT22;3875;46.562;4.898;2023-05-07T16:07:07;18.50;92.90
7666;DHT22;3875;46.562;4.898;2023-05-07T16:09:32;18.70;92.50
7666;DHT22;3875;46.562;4.898;2023-05-07T16:11:59;19.00;91.80